Terminal Aerodrome Forecast
Issued by NWS

Home | Current Version | Previous Version | Text Only | Print | Product List | Glossary On
Versions: 1 2 3 4 5 6 7 8 9 10 11 12 13 14 15 16 17 18 19 20 21
000
FTUS46 KLOX 171745
TAFSBP
TAF
KSBP 171745Z 1718/1818 32004KT P6SM SCT008
     FM172000 32012KT P6SM SCT050
     FM180200 32008KT P6SM SCT250
     FM180600 05004KT P6SM SKC
     FM181400 VRB03KT P6SM SKC=

USA.gov is the U.S. government's official web portal to all federal, state and local government web resources and services.